createdAt,value
2016-09-12T00:00:12.490Z,1143.87
2016-09-12T00:01:12.159Z,1143.66
2016-09-12T00:02:12.136Z,1143.6
2016-09-12T00:03:12.121Z,1143.23
2016-09-12T00:04:12.150Z,1143.14
2016-09-12T00:05:12.202Z,1142.72
2016-09-12T00:06:12.131Z,1142.52
2016-09-12T00:07:12.198Z,1142.37
2016-09-12T00:08:12.722Z,1141.97
2016-09-12T00:09:12.242Z,1141.74
2016-09-12T00:10:12.134Z,1141.66
2016-09-12T00:11:12.388Z,1141.33
2016-09-12T00:12:12.520Z,1141.08
2016-09-12T00:13:12.157Z,1141.31
2016-09-12T00:14:12.190Z,1140.93
2016-09-12T00:15:12.154Z,1141.04
2016-09-12T00:16:12.150Z,1140.81
2016-09-12T00:17:12.154Z,1140.9
2016-09-12T00:18:12.173Z,1140.65
2016-09-12T00:19:12.206Z,1140.59
2016-09-12T00:20:12.221Z,1140.5
2016-09-12T00:21:12.841Z,1140.51
2016-09-12T00:22:12.160Z,1140.53
2016-09-12T00:23:12.153Z,1140.42
2016-09-12T00:24:12.209Z,1140.42
2016-09-12T00:25:12.156Z,1140.37
2016-09-12T00:26:12.193Z,1140.29
2016-09-12T00:27:12.237Z,1139.92
2016-09-12T00:28:12.189Z,1139.88
2016-09-12T00:29:12.176Z,1139.58
2016-09-12T00:30:12.383Z,1139.48
2016-09-12T00:31:12.203Z,1139.16
2016-09-12T00:32:12.180Z,1139.11
2016-09-12T00:33:12.169Z,1138.66
2016-09-12T00:34:12.200Z,1138.48
2016-09-12T00:35:12.162Z,1138.15
2016-09-12T00:36:12.702Z,1137.95
2016-09-12T00:37:12.148Z,1137.87
2016-09-12T00:38:12.165Z,1137.41
2016-09-12T00:39:12.181Z,1137.39
2016-09-12T00:40:12.341Z,1137.2
2016-09-12T00:41:12.158Z,1136.95
2016-09-12T00:42:12.246Z,1136.76
2016-09-12T00:43:12.242Z,1136.43
2016-09-12T00:44:12.189Z,1136.48
2016-09-12T00:45:13.155Z,1136.28
2016-09-12T00:46:12.215Z,1136.07
2016-09-12T00:47:12.161Z,1135.8
2016-09-12T00:48:12.215Z,1135.84
2016-09-12T00:49:12.179Z,1135.62
2016-09-12T00:50:12.208Z,1135.57
2016-09-12T00:51:12.186Z,1135.48
2016-09-12T00:52:12.187Z,1135.36
2016-09-12T00:53:12.247Z,1135.29
2016-09-12T00:54:12.179Z,1135.23
2016-09-12T00:55:12.182Z,1135.16
2016-09-12T00:56:13.223Z,1135.11
2016-09-12T00:57:12.191Z,1135.22
2016-09-12T00:58:12.188Z,1134.99
2016-09-12T00:59:12.192Z,1135.05
2016-09-12T01:00:12.179Z,1134.98
2016-09-12T01:01:12.181Z,1135
2016-09-12T01:02:12.311Z,1134.58
2016-09-12T01:03:12.180Z,1134.5
2016-09-12T01:04:12.235Z,1134.28
2016-09-12T01:05:12.546Z,1134.21
2016-09-12T01:06:12.214Z,1134.02
2016-09-12T01:07:12.274Z,1133.57
2016-09-12T01:08:12.198Z,1133.24
2016-09-12T01:09:12.195Z,1133.03
2016-09-12T01:10:12.197Z,1132.87
2016-09-12T01:11:12.212Z,1132.46
2016-09-12T01:12:12.222Z,1132.34
2016-09-12T01:13:12.233Z,1132.25
2016-09-12T01:14:12.208Z,1132.07
2016-09-12T01:15:12.256Z,1131.77
2016-09-12T01:16:12.206Z,1131.61
2016-09-12T01:17:12.529Z,1131.25
2016-09-12T01:18:12.748Z,1131.17
2016-09-12T01:19:12.471Z,1130.99
2016-09-12T01:20:12.234Z,1130.84
2016-09-12T01:21:12.196Z,1130.63
2016-09-12T01:22:12.200Z,1130.71
2016-09-12T01:23:12.217Z,1130.53
2016-09-12T01:24:12.564Z,1130.52
2016-09-12T01:25:12.238Z,1130.29
2016-09-12T01:26:12.235Z,1130.08
2016-09-12T01:27:12.614Z,1130.02
2016-09-12T01:28:12.676Z,1129.71
2016-09-12T01:29:12.206Z,1129.53
2016-09-12T01:30:12.634Z,1129.29
2016-09-12T01:31:12.319Z,1128.93
2016-09-12T01:32:12.213Z,1128.85
2016-09-12T01:33:12.209Z,1128.4
2016-09-12T01:34:12.208Z,1128.3
2016-09-12T01:35:12.222Z,1128.02
2016-09-12T01:36:12.228Z,1127.98
2016-09-12T01:37:12.215Z,1127.82
2016-09-12T01:38:12.253Z,1127.99
2016-09-12T01:39:12.217Z,1128.04
2016-09-12T01:40:12.211Z,1127.92
2016-09-12T01:41:12.270Z,1127.66
2016-09-12T01:42:12.226Z,1127.45
2016-09-12T01:43:12.266Z,1127.33
2016-09-12T01:44:12.230Z,1127.21
2016-09-12T01:45:12.430Z,1126.74
2016-09-12T01:46:12.993Z,1126.77
2016-09-12T01:47:12.227Z,1126.56
2016-09-12T01:48:12.237Z,1126.1
2016-09-12T01:49:13.092Z,1125.87
2016-09-12T01:50:12.646Z,1125.59
2016-09-12T01:51:12.510Z,1125.32
2016-09-12T01:52:12.239Z,1124.95
2016-09-12T01:53:12.225Z,1124.73
2016-09-12T01:54:12.285Z,1124.53
2016-09-12T01:55:12.238Z,1124.15
2016-09-12T01:56:12.304Z,1123.89
2016-09-12T01:57:12.242Z,1123.67
2016-09-12T01:58:12.261Z,1123.59
2016-09-12T01:59:12.248Z,1123.38
2016-09-12T02:00:12.310Z,1123.24
2016-09-12T02:01:12.284Z,1123.09
2016-09-12T02:02:12.258Z,1123.05
2016-09-12T02:03:12.270Z,1123.07
2016-09-12T02:04:12.574Z,1123.24
2016-09-12T02:05:12.265Z,1123.05
2016-09-12T02:06:12.227Z,1123.03
2016-09-12T02:07:12.241Z,1122.91
2016-09-12T02:08:12.379Z,1122.64
2016-09-12T02:09:12.261Z,1122.48
2016-09-12T02:10:12.626Z,1122.39
2016-09-12T02:11:12.242Z,1122.2
2016-09-12T02:12:12.242Z,1122.14
2016-09-12T02:13:12.257Z,1121.76
2016-09-12T02:14:12.262Z,1121.47
2016-09-12T02:15:12.658Z,1121.44
2016-09-12T02:16:12.370Z,1121.29
2016-09-12T02:17:12.264Z,1121.16
2016-09-12T02:18:12.921Z,1120.97
2016-09-12T02:19:12.261Z,1120.77
2016-09-12T02:20:12.249Z,1120.76
2016-09-12T02:21:12.251Z,1120.66
2016-09-12T02:22:12.282Z,1120.59
2016-09-12T02:23:12.255Z,1120.34
2016-09-12T02:24:12.275Z,1120.09
2016-09-12T02:25:12.261Z,1120.02
2016-09-12T02:26:12.259Z,1119.72
2016-09-12T02:27:12.316Z,1119.79
2016-09-12T02:28:12.623Z,1119.52
2016-09-12T02:29:12.270Z,1119.37
2016-09-12T02:30:12.262Z,1119.2
2016-09-12T02:31:12.269Z,1119.13
2016-09-12T02:32:12.281Z,1118.91
2016-09-12T02:33:12.407Z,1118.43
2016-09-12T02:34:12.285Z,1118.48
2016-09-12T02:35:12.265Z,1118.11
2016-09-12T02:36:12.301Z,1118
2016-09-12T02:37:12.362Z,1117.82
2016-09-12T02:38:12.301Z,1117.49
2016-09-12T02:39:12.262Z,1117.49
2016-09-12T02:40:12.327Z,1117.42
2016-09-12T02:41:12.322Z,1117.22
2016-09-12T02:42:12.311Z,1117.16
2016-09-12T02:43:12.327Z,1116.98
2016-09-12T02:44:12.875Z,1116.83
2016-09-12T02:45:12.340Z,1116.53
2016-09-12T02:46:12.277Z,1116.16
2016-09-12T02:47:12.281Z,1116.03
2016-09-12T02:48:12.347Z,1115.89
2016-09-12T02:49:12.387Z,1115.76
2016-09-12T02:50:12.365Z,1115.58
2016-09-12T02:51:12.337Z,1115.29
2016-09-12T02:52:12.361Z,1115.34
2016-09-12T02:53:12.282Z,1115.28
2016-09-12T02:54:12.335Z,1114.96
2016-09-12T02:55:12.321Z,1115
2016-09-12T02:56:12.401Z,1114.82
2016-09-12T02:57:12.298Z,1114.69
2016-09-12T02:58:12.405Z,1114.51
2016-09-12T02:59:12.275Z,1114.42
2016-09-12T03:00:12.294Z,1114.02
2016-09-12T03:01:12.599Z,1114.04
2016-09-12T03:02:12.286Z,1113.72
2016-09-12T03:03:12.299Z,1113.47
2016-09-12T03:04:12.311Z,1113.31
2016-09-12T03:05:12.290Z,1113.26
2016-09-12T03:06:12.642Z,1113.08
2016-09-12T03:07:12.422Z,1112.69
2016-09-12T03:08:12.306Z,1112.46
2016-09-12T03:09:12.319Z,1112.39
2016-09-12T03:10:12.290Z,1112.1
2016-09-12T03:11:12.342Z,1111.61
2016-09-12T03:12:12.289Z,1111.34
2016-09-12T03:13:12.287Z,1111.2
2016-09-12T03:14:12.488Z,1111.02
2016-09-12T03:15:12.293Z,1110.68
2016-09-12T03:16:12.363Z,1110.21
2016-09-12T03:17:12.312Z,1109.86
2016-09-12T03:18:12.330Z,1109.53
2016-09-12T03:19:12.315Z,1109.38
2016-09-12T03:20:12.314Z,1108.88
2016-09-12T03:21:12.310Z,1108.65
2016-09-12T03:22:12.391Z,1108.29
2016-09-12T03:23:12.321Z,1108.2
2016-09-12T03:24:12.302Z,1107.97
2016-09-12T03:25:12.397Z,1107.33
2016-09-12T03:26:12.605Z,1107.4
2016-09-12T03:27:12.321Z,1107.08
2016-09-12T03:28:12.319Z,1106.75
2016-09-12T03:29:12.316Z,1106.72
2016-09-12T03:30:12.336Z,1106.55
2016-09-12T03:31:12.342Z,1106.37
2016-09-12T03:32:12.327Z,1106.03
2016-09-12T03:33:12.347Z,1105.88
2016-09-12T03:34:12.389Z,1105.56
2016-09-12T03:35:12.325Z,1105.39
2016-09-12T03:36:12.320Z,1105.14
2016-09-12T03:37:12.339Z,1104.8
2016-09-12T03:38:12.315Z,1104.82
2016-09-12T03:39:12.399Z,1104.38
2016-09-12T03:40:12.326Z,1104.47
2016-09-12T03:41:12.320Z,1104.39
2016-09-12T03:42:12.652Z,1104.17
2016-09-12T03:43:12.321Z,1104.28
2016-09-12T03:44:12.337Z,1104.06
2016-09-12T03:45:12.346Z,1104.02
2016-09-12T03:46:12.337Z,1104
2016-09-12T03:47:12.423Z,1103.84
2016-09-12T03:48:12.366Z,1104.05
2016-09-12T03:49:12.821Z,1103.86
2016-09-12T03:50:12.697Z,1103.79
2016-09-12T03:51:12.335Z,1103.74
2016-09-12T03:52:12.406Z,1103.83
2016-09-12T03:53:12.317Z,1103.55
2016-09-12T03:54:12.348Z,1103.44
2016-09-12T03:55:12.382Z,1103.35
2016-09-12T03:56:12.345Z,1103.25
2016-09-12T03:57:12.356Z,1103.25
2016-09-12T03:58:12.358Z,1103.09
2016-09-12T03:59:12.509Z,1102.84
2016-09-12T04:00:12.399Z,1102.63
2016-09-12T04:01:12.351Z,1102.17
2016-09-12T04:02:12.776Z,1102.45
2016-09-12T04:03:12.387Z,1102.5
2016-09-12T04:04:12.352Z,1102.62
2016-09-12T04:05:12.371Z,1102.64
2016-09-12T04:06:12.368Z,1102.74
2016-09-12T04:07:12.378Z,1102.53
2016-09-12T04:08:12.363Z,1102.54
2016-09-12T04:09:12.370Z,1102.45
2016-09-12T04:10:12.381Z,1102.32
2016-09-12T04:11:12.349Z,1102.11
2016-09-12T04:12:12.367Z,1101.97
2016-09-12T04:13:12.483Z,1101.57
2016-09-12T04:14:12.382Z,1101.35
2016-09-12T04:15:12.418Z,1101.21
2016-09-12T04:16:13.009Z,1101.12
2016-09-12T04:17:12.527Z,1100.75
2016-09-12T04:18:13.867Z,1100.64
2016-09-12T04:19:12.403Z,1100.38
2016-09-12T04:20:12.346Z,1100.19
2016-09-12T04:21:12.423Z,1100.08
2016-09-12T04:22:12.358Z,1100.06
2016-09-12T04:23:12.419Z,1099.87
2016-09-12T04:24:12.374Z,1099.37
2016-09-12T04:25:12.369Z,1099.54
2016-09-12T04:26:12.384Z,1099.15
2016-09-12T04:27:12.360Z,1098.78
2016-09-12T04:28:12.369Z,1098.64
2016-09-12T04:29:12.486Z,1098.46
2016-09-12T04:30:12.390Z,1098.3
2016-09-12T04:31:12.360Z,1098.12
2016-09-12T04:32:12.401Z,1097.91
2016-09-12T04:33:12.687Z,1097.92
2016-09-12T04:34:12.611Z,1097.86
2016-09-12T04:35:12.551Z,1097.65
2016-09-12T04:36:12.356Z,1097.62
2016-09-12T04:37:12.460Z,1097.23
2016-09-12T04:38:12.403Z,1097.19
2016-09-12T04:39:12.396Z,1097.03
2016-09-12T04:40:12.388Z,1096.99
2016-09-12T04:41:12.376Z,1096.95
2016-09-12T04:42:12.376Z,1096.69
2016-09-12T04:43:12.411Z,1096.63
2016-09-12T04:44:12.380Z,1096.49
2016-09-12T04:45:12.410Z,1095.94
2016-09-12T04:46:12.417Z,1096.1
2016-09-12T04:47:12.400Z,1096.05
2016-09-12T04:48:12.391Z,1096.03
2016-09-12T04:49:12.438Z,1096.09
2016-09-12T04:50:12.515Z,1095.86
2016-09-12T04:51:12.852Z,1096.47
2016-09-12T04:52:12.391Z,1096.48
2016-09-12T04:53:12.434Z,1096.8
2016-09-12T04:54:12.468Z,1097.17
2016-09-12T04:55:12.404Z,1097.22
2016-09-12T04:56:12.425Z,1097.7
2016-09-12T04:57:12.448Z,1097.8
2016-09-12T04:58:12.415Z,1098.34
2016-09-12T04:59:12.413Z,1098.62
2016-09-12T05:00:12.402Z,1098.83
2016-09-12T05:01:12.708Z,1098.94
2016-09-12T05:02:12.405Z,1099.07
2016-09-12T05:03:12.409Z,1099.16
2016-09-12T05:04:15.285Z,1099.17
2016-09-12T05:06:23.801Z,1096.53
2016-09-12T05:07:28.107Z,1097.14
2016-09-12T05:08:50.827Z,1097.03
2016-09-12T05:10:23.821Z,1099.36
2016-09-12T05:11:31.147Z,1099.18
2016-09-12T05:12:34.253Z,1098.96
2016-09-12T05:13:54.959Z,1094.23
2016-09-12T05:15:22.948Z,1099.01
2016-09-12T05:16:32.134Z,1096.85
2016-09-12T05:17:31.986Z,1098.92
2016-09-12T05:18:32.370Z,1099.07
2016-09-12T05:19:31.038Z,1099.01
2016-09-12T05:20:31.764Z,1099.3
2016-09-12T05:21:30.945Z,1099.17
2016-09-12T05:22:30.949Z,1099.31
2016-09-12T05:23:30.968Z,1099.64
2016-09-12T05:24:31.033Z,1099.96
2016-09-12T05:25:31.227Z,1100.17
2016-09-12T05:26:31.196Z,1100.41
2016-09-12T05:27:30.962Z,1100.65
2016-09-12T05:28:30.977Z,1101.4
2016-09-12T05:29:30.972Z,1101.98
2016-09-12T05:30:30.931Z,1102.36
2016-09-12T05:31:31.801Z,1102.92
2016-09-12T05:32:31.077Z,1103.66
2016-09-12T05:33:30.990Z,1104.56
2016-09-12T05:34:31.010Z,1104.73
2016-09-12T05:35:32.103Z,1105.22
2016-09-12T05:36:31.099Z,1105.79
2016-09-12T05:37:31.696Z,1106.22
2016-09-12T05:38:31.027Z,1106.93
2016-09-12T05:39:30.975Z,1107.27
2016-09-12T05:40:30.964Z,1107.61
2016-09-12T05:41:31.094Z,1108.24
2016-09-12T05:42:31.050Z,1108.74
2016-09-12T05:43:31.222Z,1109.27
2016-09-12T05:44:31.000Z,1110.36
2016-09-12T05:45:31.605Z,1111.79
2016-09-12T05:46:31.019Z,1113.01
2016-09-12T05:47:31.236Z,1114.66
2016-09-12T05:48:31.486Z,1116.15
2016-09-12T05:49:30.981Z,1117.19
2016-09-12T05:50:31.035Z,1118.16
2016-09-12T05:51:30.991Z,1119.14
2016-09-12T05:52:30.965Z,1119.68
2016-09-12T05:53:31.017Z,1120.27
2016-09-12T05:54:32.098Z,1120.63
2016-09-12T05:55:31.094Z,1121.27
2016-09-12T05:56:31.430Z,1121.87
2016-09-12T05:57:31.090Z,1122.34
2016-09-12T05:58:31.150Z,1122.79
2016-09-12T05:59:31.041Z,1123.33
2016-09-12T06:00:30.974Z,1123.55
2016-09-12T06:01:31.929Z,1124.17
2016-09-12T06:02:31.203Z,1124.54
2016-09-12T06:03:30.980Z,1124.93
2016-09-12T06:04:31.009Z,1125.39
2016-09-12T06:05:31.078Z,1125.78
2016-09-12T06:06:31.065Z,1126.3
2016-09-12T06:07:31.123Z,1126.88
2016-09-12T06:08:31.048Z,1127.4
2016-09-12T06:09:51.199Z,1128.06
2016-09-12T06:10:31.182Z,1128.66
2016-09-12T06:11:31.095Z,1129.53
2016-09-12T06:12:31.005Z,1130.08
2016-09-12T06:13:33.627Z,1130.85
2016-09-12T06:14:31.294Z,1131.29
2016-09-12T06:15:32.165Z,1132.12
2016-09-12T06:16:31.403Z,1132.79
2016-09-12T06:17:31.095Z,1133.43
2016-09-12T06:18:32.311Z,1134.21
2016-09-12T06:19:31.895Z,1135.09
2016-09-12T06:20:41.302Z,1135.6
2016-09-12T06:21:32.507Z,1136.46
2016-09-12T06:24:33.376Z,1138.81
2016-09-12T06:25:33.376Z,1139.58
2016-09-12T06:26:33.376Z,1140.24
2016-09-12T06:27:33.376Z,1141.01
2016-09-12T06:28:33.995Z,1141.68
2016-09-12T06:29:33.414Z,1142.34
2016-09-12T06:30:33.376Z,1143.28
2016-09-12T06:31:33.419Z,1143.81
2016-09-12T06:32:33.388Z,1144.58
2016-09-12T06:33:33.379Z,1145.29
2016-09-12T06:34:33.393Z,1146.06
2016-09-12T06:35:33.377Z,1146.78
2016-09-12T06:36:33.407Z,1147.43
2016-09-12T06:37:33.378Z,1148.05
2016-09-12T06:38:33.392Z,1148.79
2016-09-12T06:39:33.383Z,1149.33
2016-09-12T06:40:33.871Z,1149.94
2016-09-12T06:42:08.808Z,1150.5
2016-09-12T06:56:28.844Z,1154.3
2016-09-12T12:52:25.700Z,829.75
2016-09-12T12:53:25.689Z,829.18
2016-09-12T12:54:25.669Z,828.58
2016-09-12T12:55:25.670Z,827.38
2016-09-12T12:56:25.660Z,826.74
2016-09-12T12:57:25.675Z,825.42
2016-09-12T12:58:25.681Z,824.09
2016-09-12T12:59:25.678Z,822.55
2016-09-12T13:00:25.679Z,820.26
2016-09-12T13:01:25.710Z,818.78
2016-09-12T13:02:25.681Z,817.55
2016-09-12T13:03:25.683Z,815.89
2016-09-12T13:04:25.717Z,815.24
2016-09-12T13:05:25.697Z,813.58
2016-09-12T13:06:25.745Z,813.23
2016-09-12T13:07:25.678Z,812.62
2016-09-12T13:08:25.721Z,812.16
2016-09-12T13:09:25.697Z,811.4
2016-09-12T13:10:25.697Z,810.76
2016-09-12T13:11:25.695Z,809.88
2016-09-12T13:12:25.683Z,809.4
2016-09-12T13:13:25.709Z,808.76
2016-09-12T13:14:25.724Z,807.7
2016-09-12T13:15:25.705Z,807.34
2016-09-12T13:16:25.696Z,805.97
2016-09-12T13:17:25.721Z,805.2
2016-09-12T13:18:25.693Z,804.29
2016-09-12T13:19:25.708Z,803.18
2016-09-12T13:20:25.705Z,802.41
2016-09-12T13:21:25.751Z,801.13
2016-09-12T13:22:25.883Z,800.7
2016-09-12T13:23:25.701Z,800.37
2016-09-12T13:24:25.707Z,799.74
2016-09-12T13:25:25.717Z,798.95
2016-09-12T13:26:25.692Z,797.98
2016-09-12T13:27:25.748Z,797.52
2016-09-12T13:28:25.719Z,796
2016-09-12T13:29:25.729Z,795.96
2016-09-12T13:30:25.716Z,795.5
2016-09-12T13:31:25.755Z,795.18
2016-09-12T13:32:25.727Z,794.52
2016-09-12T13:33:25.710Z,794.72
2016-09-12T13:34:25.730Z,794.02
2016-09-12T13:35:25.759Z,793.69
2016-09-12T13:36:25.722Z,793.37
2016-09-12T13:37:25.716Z,792.75
2016-09-12T13:38:25.710Z,791.82
2016-09-12T13:39:25.713Z,791.76
2016-09-12T13:40:25.720Z,791.43
2016-09-12T13:41:25.720Z,790.83
2016-09-12T13:42:25.728Z,789.72
2016-09-12T13:43:25.724Z,789.23
2016-09-12T13:44:25.726Z,788.17
2016-09-12T13:45:25.749Z,787.04
2016-09-12T13:46:25.722Z,786.72
2016-09-12T13:47:25.740Z,785.43
2016-09-12T13:48:25.736Z,785.91
2016-09-12T13:49:25.780Z,785.45
2016-09-12T13:50:25.742Z,785.12
2016-09-12T13:51:25.732Z,785.61
2016-09-12T13:52:25.784Z,785.44
2016-09-12T13:53:25.745Z,785.43
2016-09-12T13:54:25.737Z,785.93
2016-09-12T13:55:25.763Z,785.73
2016-09-12T13:56:25.745Z,786.52
2016-09-12T13:57:25.744Z,786.67
2016-09-12T13:58:25.740Z,786.07
2016-09-12T13:59:25.748Z,785.75
2016-09-12T14:00:25.742Z,785.53
2016-09-12T14:01:25.756Z,785.28
2016-09-12T14:02:25.753Z,785.11
2016-09-12T14:03:25.755Z,783.99
2016-09-12T14:04:25.768Z,783.65
2016-09-12T14:05:25.758Z,782.84
2016-09-12T14:06:25.750Z,782.4
2016-09-12T14:07:25.756Z,781.57
2016-09-12T14:08:25.751Z,780.64
2016-09-12T14:09:25.781Z,780.12
2016-09-12T14:10:25.772Z,779.88
2016-09-12T14:11:25.752Z,779.39
2016-09-12T14:12:25.746Z,779.05
2016-09-12T14:13:25.759Z,779.04
2016-09-12T14:14:25.757Z,778.43
2016-09-12T14:15:25.770Z,778.42
2016-09-12T14:16:25.774Z,777.77
2016-09-12T14:17:25.763Z,777.91
2016-09-12T14:18:25.763Z,778.19
2016-09-12T14:19:25.762Z,778.82
2016-09-12T14:20:26.752Z,779.46
2016-09-12T14:21:25.762Z,779.77
2016-09-12T14:22:25.769Z,780.9
2016-09-12T14:23:25.766Z,782.32
2016-09-12T14:24:25.782Z,783.56
2016-09-12T14:25:25.787Z,783.7
2016-09-12T14:26:25.764Z,783.72
2016-09-12T14:27:25.803Z,783.24
2016-09-12T14:28:25.780Z,784.02
2016-09-12T14:29:25.775Z,783.07
2016-09-12T14:30:25.807Z,783.32
2016-09-12T14:31:25.770Z,782.6
2016-09-12T14:32:25.790Z,783.19
2016-09-12T14:33:25.801Z,782.89
2016-09-12T14:34:25.792Z,781.88
2016-09-12T14:35:25.797Z,781.27
2016-09-12T14:36:25.779Z,781.1
2016-09-12T14:37:25.788Z,781.26
2016-09-12T14:38:25.813Z,780.64
2016-09-12T14:39:25.800Z,780.78
2016-09-12T14:40:25.807Z,780.48
2016-09-12T14:41:25.822Z,779.83
2016-09-12T14:42:25.801Z,779.48
2016-09-12T14:43:25.812Z,778.21
2016-09-12T14:44:25.788Z,777.23
2016-09-12T14:45:25.798Z,776.29
2016-09-12T14:46:25.798Z,776.43
2016-09-12T14:47:25.794Z,775.93
2016-09-12T14:48:25.793Z,775.3
2016-09-12T14:49:25.815Z,775.32
2016-09-12T14:50:25.795Z,775.98
2016-09-12T14:51:25.804Z,776.13
2016-09-12T14:52:25.836Z,776.55
2016-09-12T14:53:25.802Z,776.74
2016-09-12T14:54:25.810Z,777.37
2016-09-12T14:55:25.810Z,777.05
2016-09-12T14:56:25.846Z,777.38
2016-09-12T14:57:25.812Z,778.34
2016-09-12T14:58:25.804Z,778.16
2016-09-12T14:59:25.872Z,778.33
2016-09-12T15:00:25.820Z,778.48
2016-09-12T15:01:25.818Z,779.1
2016-09-12T15:02:25.825Z,779.12
2016-09-12T15:03:25.814Z,779.08
2016-09-12T15:04:25.863Z,778.93
2016-09-12T15:05:25.841Z,779.4
2016-09-12T15:06:25.849Z,779.56
2016-09-12T15:07:25.833Z,779.54
2016-09-12T15:08:25.830Z,779.38
2016-09-12T15:09:25.858Z,778.7
2016-09-12T15:10:25.829Z,778.42
2016-09-12T15:11:25.838Z,778.1
2016-09-12T15:12:25.832Z,779.06
2016-09-12T15:13:25.839Z,779.55
2016-09-12T15:14:25.851Z,780.34
2016-09-12T15:15:25.855Z,780.8
2016-09-12T15:16:25.846Z,780.99
2016-09-12T15:17:25.860Z,782.1
2016-09-12T15:18:25.867Z,782.44
2016-09-12T15:19:25.845Z,782.73
2016-09-12T15:20:25.843Z,783.18
2016-09-12T15:21:25.894Z,783.62
2016-09-12T15:22:25.843Z,784
2016-09-12T15:23:25.862Z,785.41
2016-09-12T15:24:25.842Z,786.47
2016-09-12T15:25:25.855Z,787.85
2016-09-12T15:26:25.845Z,788.22
2016-09-12T15:27:25.853Z,788.21
2016-09-12T15:28:26.528Z,788.05
2016-09-12T15:29:25.871Z,788.2
2016-09-12T15:30:25.861Z,787.85
2016-09-12T15:31:25.843Z,787.53
2016-09-12T15:32:25.859Z,787.5
2016-09-12T15:33:25.871Z,787.97
2016-09-12T15:34:25.856Z,788.31
2016-09-12T15:35:28.380Z,788.43
2016-09-12T15:36:25.855Z,789.23
2016-09-12T15:37:25.883Z,790.32
2016-09-12T15:38:25.852Z,790.79
2016-09-12T15:39:25.879Z,792.69
2016-09-12T15:40:25.858Z,793.93
2016-09-12T15:41:25.863Z,795.82
2016-09-12T15:42:25.865Z,797.21
2016-09-12T15:43:27.306Z,798.77
2016-09-12T15:44:28.128Z,800.33
2016-09-12T15:45:26.501Z,801.99
2016-09-12T15:46:26.715Z,803.23
2016-09-12T15:47:26.578Z,804.9
2016-09-12T15:48:26.738Z,806.12
2016-09-12T15:49:26.760Z,807.04
2016-09-12T15:50:27.616Z,807.92
2016-09-12T15:51:26.576Z,808.71
2016-09-12T15:52:27.656Z,810.69
2016-09-12T15:53:26.780Z,811.62
2016-09-12T15:54:27.884Z,813.42
2016-09-12T15:55:26.620Z,814.96
2016-09-12T15:56:26.876Z,817.21
2016-09-12T15:57:26.756Z,818.97
2016-09-12T15:58:26.927Z,819.96
2016-09-12T15:59:26.671Z,820.98
2016-09-12T16:00:26.678Z,822.17
2016-09-12T16:01:26.664Z,823.53
2016-09-12T16:02:27.234Z,825.15
2016-09-12T16:03:26.684Z,825.15
2016-09-12T16:04:26.444Z,825.29
2016-09-12T16:05:26.680Z,825.4
2016-09-12T16:06:26.694Z,825.14
2016-09-12T16:07:26.734Z,825.01
2016-09-12T16:08:26.871Z,826.2
2016-09-12T16:09:26.943Z,826.52
2016-09-12T16:10:27.069Z,826.67
2016-09-12T16:13:56.783Z,828.8
2016-09-12T16:14:22.622Z,829.42
2016-09-12T16:15:22.739Z,830.76
2016-09-12T16:16:22.633Z,831.66
2016-09-12T16:17:22.619Z,832.58
2016-09-12T16:18:23.397Z,833.92
2016-09-12T16:19:22.613Z,834.94
2016-09-12T16:20:22.605Z,835.82
2016-09-12T16:21:22.634Z,837.42
2016-09-12T16:22:22.613Z,839.44
2016-09-12T16:23:22.624Z,840.64
2016-09-12T16:24:22.648Z,841.9
2016-09-12T16:25:22.627Z,843.41
2016-09-12T16:26:22.631Z,845.14
2016-09-12T16:27:22.638Z,846.56
2016-09-12T16:28:22.616Z,848.04
2016-09-12T16:29:22.631Z,849.75
2016-09-12T16:30:22.638Z,851.34
2016-09-12T16:31:22.647Z,853.63
2016-09-12T16:32:22.658Z,855.22
2016-09-12T16:33:22.631Z,857.08
2016-09-12T16:34:22.639Z,858.63
2016-09-12T16:35:22.631Z,860.33
2016-09-12T16:36:22.622Z,861.62
2016-09-12T16:37:22.637Z,863.42
2016-09-12T16:38:22.681Z,864.15
2016-09-12T16:39:22.646Z,865.51
2016-09-12T16:40:22.625Z,867.2
2016-09-12T16:41:22.642Z,868.6
2016-09-12T16:42:22.648Z,870.95
2016-09-12T16:43:22.650Z,872.79
2016-09-12T16:44:23.176Z,874.85
2016-09-12T16:45:22.637Z,876.63
2016-09-12T16:46:22.641Z,878.18
2016-09-12T16:47:22.645Z,881.06
2016-09-12T16:48:22.652Z,882.71
2016-09-12T16:49:22.637Z,884.6
2016-09-12T16:50:22.659Z,886.52
2016-09-12T16:51:22.645Z,888.23
2016-09-12T16:52:22.666Z,890.54
2016-09-12T16:53:22.647Z,891.9
2016-09-12T16:54:22.655Z,894.15
2016-09-12T16:55:22.696Z,896.57
2016-09-12T16:56:22.665Z,898.56
2016-09-12T16:57:23.197Z,900.68
2016-09-12T16:58:22.663Z,902.64
2016-09-12T16:59:22.655Z,905.02
2016-09-12T17:00:22.659Z,907.2
2016-09-12T17:01:22.672Z,908.72
2016-09-12T17:02:23.296Z,911.01
2016-09-12T17:03:22.675Z,913.33
2016-09-12T17:04:22.807Z,915.79
2016-09-12T17:05:22.674Z,917.84
2016-09-12T17:06:22.665Z,920.26
2016-09-12T17:07:23.314Z,922.26
2016-09-12T17:08:22.751Z,924.75
2016-09-12T17:09:22.695Z,927.54
2016-09-12T17:10:22.670Z,930.28
2016-09-12T17:11:22.675Z,933.24
2016-09-12T17:12:22.671Z,936.15
2016-09-12T17:13:22.657Z,939.11
2016-09-12T17:14:22.666Z,942.62
2016-09-12T17:15:22.682Z,946.82
2016-09-12T17:16:22.678Z,950.64
2016-09-12T17:17:22.697Z,954.15
2016-09-12T17:18:22.678Z,957.01
2016-09-12T17:19:22.675Z,961.18
2016-09-12T17:20:22.678Z,964.08
2016-09-12T17:21:22.705Z,967.61
2016-09-12T17:22:22.681Z,971.08
2016-09-12T17:23:23.418Z,974.18
2016-09-12T17:24:22.819Z,977.95
2016-09-12T17:25:22.763Z,981.37
2016-09-12T17:26:22.694Z,984.72
2016-09-12T17:27:22.710Z,988.08
2016-09-12T17:28:22.702Z,991.49
2016-09-12T17:29:22.694Z,994.49
2016-09-12T17:30:23.050Z,997.25
2016-09-12T17:31:22.726Z,1000
2016-09-12T17:32:22.698Z,1003.18
2016-09-12T17:33:22.702Z,1005.91
2016-09-12T17:34:23.856Z,1008.72
2016-09-12T17:35:22.690Z,1011.26
2016-09-12T17:36:22.694Z,1014.04
2016-09-12T17:37:23.957Z,1016.5
2016-09-12T17:38:22.730Z,1018.89
2016-09-12T17:39:22.833Z,1021.51
2016-09-12T17:40:22.718Z,1023.6
2016-09-12T17:41:23.294Z,1025.74
2016-09-12T17:42:22.839Z,1028.31
2016-09-12T17:43:23.100Z,1030.91
2016-09-12T17:44:22.753Z,1032.56
2016-09-12T17:45:22.907Z,1034.96
2016-09-12T17:46:22.727Z,1037.05
2016-09-12T17:47:22.894Z,1039.48
2016-09-12T17:48:22.746Z,1041.66
2016-09-12T17:49:23.085Z,1043.38
2016-09-12T17:50:22.719Z,1045.43
2016-09-12T17:51:22.711Z,1047.02
2016-09-12T17:52:22.969Z,1049.16
2016-09-12T17:53:22.730Z,1050.94
2016-09-12T17:54:22.710Z,1052.78
2016-09-12T17:55:22.715Z,1054.75
2016-09-12T17:56:22.724Z,1056.44
2016-09-12T17:57:22.728Z,1058.11
2016-09-12T17:58:23.103Z,1059.44
2016-09-12T17:59:22.740Z,1061.49
2016-09-12T18:00:22.718Z,1063.09
2016-09-12T18:01:22.865Z,1064.12
2016-09-12T18:02:22.743Z,1065.81
2016-09-12T18:03:22.730Z,1067.26
2016-09-12T18:04:22.724Z,1068.75
2016-09-12T18:05:22.736Z,1070.06
2016-09-12T18:06:22.864Z,1071.69
2016-09-12T18:07:22.895Z,1072.93
2016-09-12T18:08:22.745Z,1074.44
2016-09-12T18:09:22.751Z,1075.81
2016-09-12T18:10:22.798Z,1077.15
2016-09-12T18:11:22.738Z,1078.34
2016-09-12T18:12:22.872Z,1079.45
2016-09-12T18:13:22.763Z,1080.72
2016-09-12T18:14:22.739Z,1082.09
2016-09-12T18:15:23.551Z,1083.24
2016-09-12T18:16:22.752Z,1084.07
2016-09-12T18:17:22.780Z,1085.23
2016-09-12T18:18:22.752Z,1086.16
2016-09-12T18:19:22.771Z,1086.95
2016-09-12T18:20:22.771Z,1088.04
2016-09-12T18:21:22.845Z,1088.77
2016-09-12T18:22:22.759Z,1089.94
2016-09-12T18:23:22.842Z,1090.93
2016-09-12T18:24:22.778Z,1091.63
2016-09-12T18:25:22.793Z,1092.44
2016-09-12T18:26:22.815Z,1093.74
2016-09-12T18:27:23.463Z,1094.57
2016-09-12T18:28:22.841Z,1095.16
2016-09-12T18:29:22.802Z,1096.13
2016-09-12T18:30:23.054Z,1096.94
2016-09-12T18:31:22.811Z,1098.03
2016-09-12T18:32:22.791Z,1098.95